Time;durP1;ratioP1;P1;durP2;ratioP2;P2;SDS_P1;SDS_P2;PMS_P1;PMS_P2;Temp;Humidity;BMP_temperature;BMP_pressure;BME280_temperature;BME280_humidity;BME280_pressure;Samples;Min_cycle;Max_cycle;Signal;HPM_P1;HPM_P2
2021/07/29 00:00:19;;;;;;;7.60;7.40;;;24.60;95.50;;;;;;3587144;40;20492;-59
2021/07/29 00:02:46;;;;;;;7.70;7.50;;;24.60;95.60;;;;;;3587512;40;20708;-59
2021/07/29 00:05:13;;;;;;;7.67;7.47;;;24.60;95.50;;;;;;3587142;40;20450;-57
2021/07/29 00:07:42;;;;;;;7.73;7.53;;;24.60;95.50;;;;;;3586622;40;20462;-59
2021/07/29 00:10:10;;;;;;;7.90;7.70;;;24.60;95.50;;;;;;3587230;40;20509;-58
2021/07/29 00:12:37;;;;;;;8.77;8.47;;;24.60;95.60;;;;;;3586577;40;20490;-58
2021/07/29 00:15:06;;;;;;;8.10;7.90;;;24.60;95.50;;;;;;3586185;40;20446;-59
2021/07/29 00:20:15;;;;;;;8.17;7.97;;;24.60;95.50;;;;;;3585713;40;20563;-58
2021/07/29 00:22:45;;;;;;;8.87;8.57;;;24.60;95.50;;;;;;3586058;40;20521;-59
2021/07/29 00:25:13;;;;;;;8.50;8.23;;;24.60;95.50;;;;;;3585859;40;20688;-57
2021/07/29 00:27:40;;;;;;;8.23;8.00;;;24.60;95.50;;;;;;3567681;40;20496;-58
2021/07/29 00:30:09;;;;;;;8.23;8.03;;;24.60;95.50;;;;;;3586177;40;20821;-58
2021/07/29 00:32:37;;;;;;;8.10;7.90;;;24.60;95.60;;;;;;3586556;40;20469;-58
2021/07/29 00:35:06;;;;;;;8.20;8.00;;;24.60;95.50;;;;;;3585127;40;20521;-58
2021/07/29 00:37:34;;;;;;;8.00;7.80;;;24.60;95.50;;;;;;3585312;40;20474;-57
2021/07/29 00:40:03;;;;;;;8.00;7.80;;;24.60;95.50;;;;;;3585939;40;20469;-58
2021/07/29 00:42:31;;;;;;;7.90;7.70;;;24.60;95.50;;;;;;3585600;40;20457;-57
2021/07/29 00:44:58;;;;;;;7.63;7.43;;;24.60;95.50;;;;;;3585833;40;20454;-58
2021/07/29 00:47:26;;;;;;;7.80;7.60;;;24.60;95.50;;;;;;3584969;40;20446;-58
2021/07/29 00:49:54;;;;;;;8.10;7.90;;;24.60;95.50;;;;;;3586323;40;20450;-59
2021/07/29 00:52:22;;;;;;;8.40;8.20;;;24.60;95.50;;;;;;3576144;40;20970;-57
2021/07/29 00:54:51;;;;;;;8.53;8.30;;;24.60;95.50;;;;;;3586274;40;20584;-58
2021/07/29 00:57:21;;;;;;;8.47;8.17;;;24.60;95.50;;;;;;3585450;40;20537;-57
2021/07/29 00:59:49;;;;;;;7.73;7.53;;;24.60;95.60;;;;;;3585917;40;20521;-57
2021/07/29 01:02:18;;;;;;;8.27;8.07;;;24.60;95.50;;;;;;3585319;40;20463;-58
2021/07/29 01:04:46;;;;;;;9.13;8.83;;;24.60;95.50;;;;;;3585533;40;20454;-59
2021/07/29 01:07:14;;;;;;;8.37;8.17;;;24.60;95.60;;;;;;3585646;40;20450;-57
2021/07/29 01:09:42;;;;;;;8.10;7.90;;;24.60;95.50;;;;;;3585752;40;20932;-57
2021/07/29 01:12:10;;;;;;;8.40;8.20;;;24.60;95.50;;;;;;3586648;40;20491;-54
2021/07/29 01:14:38;;;;;;;8.57;8.27;;;24.60;95.50;;;;;;3585300;40;20739;-57
2021/07/29 01:17:05;;;;;;;8.40;8.10;;;24.60;95.50;;;;;;3585652;40;20455;-59
2021/07/29 01:19:33;;;;;;;7.90;7.70;;;24.60;95.50;;;;;;3585142;40;20474;-57
2021/07/29 01:22:01;;;;;;;8.20;8.00;;;24.60;95.50;;;;;;3584404;40;20555;-58
2021/07/29 01:24:29;;;;;;;8.43;8.13;;;24.60;95.50;;;;;;3575460;40;20498;-58
2021/07/29 01:26:56;;;;;;;8.13;7.93;;;24.60;95.50;;;;;;3584319;40;20695;-57
2021/07/29 01:29:23;;;;;;;8.30;8.10;;;24.60;95.50;;;;;;3584909;40;20462;-59
2021/07/29 01:31:51;;;;;;;7.97;7.77;;;24.60;95.50;;;;;;3584741;40;20465;-57
2021/07/29 01:34:18;;;;;;;8.77;8.47;;;24.60;95.50;;;;;;3585432;40;21046;-58
2021/07/29 01:36:46;;;;;;;8.33;8.10;;;24.60;95.50;;;;;;3575713;40;21066;-57
2021/07/29 01:39:15;;;;;;;7.93;7.73;;;24.60;95.50;;;;;;3584359;40;20489;-57
2021/07/29 01:41:42;;;;;;;8.30;8.10;;;24.60;95.50;;;;;;3585296;40;20725;-57
2021/07/29 01:44:10;;;;;;;8.23;8.03;;;24.60;95.50;;;;;;3585111;40;20455;-56
2021/07/29 01:46:37;;;;;;;8.30;8.10;;;24.60;95.50;;;;;;3585009;40;20904;-58
2021/07/29 01:49:05;;;;;;;8.13;7.93;;;24.60;95.50;;;;;;3584359;40;20718;-59
2021/07/29 01:51:32;;;;;;;8.10;7.90;;;24.60;95.50;;;;;;3585067;40;20466;-57
2021/07/29 01:53:59;;;;;;;8.77;8.47;;;24.60;95.50;;;;;;3584739;40;20476;-58
2021/07/29 01:56:28;;;;;;;8.30;8.10;;;24.60;95.50;;;;;;3585773;40;20787;-58
2021/07/29 01:58:55;;;;;;;8.20;8.00;;;24.60;95.50;;;;;;3584564;40;20482;-58
2021/07/29 02:01:24;;;;;;;8.00;7.80;;;24.60;95.50;;;;;;3586086;40;20733;-58
2021/07/29 02:03:51;;;;;;;8.03;7.83;;;24.60;95.50;;;;;;3585711;40;20473;-58
2021/07/29 02:06:18;;;;;;;8.00;7.80;;;24.60;95.60;;;;;;3585240;40;20490;-55
2021/07/29 02:08:45;;;;;;;8.03;7.83;;;24.60;95.50;;;;;;3584958;40;20494;-57
2021/07/29 02:11:13;;;;;;;7.80;7.60;;;24.60;95.50;;;;;;3576619;40;20543;-57
2021/07/29 02:13:41;;;;;;;8.40;8.20;;;24.60;95.50;;;;;;3585289;40;20680;-58
2021/07/29 02:16:10;;;;;;;8.10;7.90;;;24.60;95.50;;;;;;3584601;40;20714;-58
2021/07/29 02:18:37;;;;;;;8.20;8.00;;;24.60;95.50;;;;;;3575493;40;20474;-56
2021/07/29 02:21:08;;;;;;;8.30;8.10;;;24.60;95.50;;;;;;3585123;40;20459;-57
2021/07/29 02:23:35;;;;;;;8.30;8.10;;;24.60;95.50;;;;;;3584798;40;20463;-57
2021/07/29 02:26:03;;;;;;;8.40;8.10;;;24.60;95.50;;;;;;3584195;40;20486;-58
2021/07/29 02:28:30;;;;;;;8.67;8.37;;;24.60;95.50;;;;;;3584599;40;20786;-55
2021/07/29 02:30:59;;;;;;;8.40;8.13;;;24.60;95.50;;;;;;3585388;40;20726;-57
2021/07/29 02:33:26;;;;;;;8.80;8.50;;;24.60;95.50;;;;;;3584403;40;20451;-57
2021/07/29 02:35:53;;;;;;;8.60;8.40;;;24.60;95.50;;;;;;3584967;40;20450;-57
2021/07/29 02:38:20;;;;;;;8.43;8.23;;;24.60;95.50;;;;;;3585362;40;20796;-56
2021/07/29 02:40:47;;;;;;;8.30;8.10;;;24.60;95.50;;;;;;3584337;40;20497;-59
2021/07/29 02:43:15;;;;;;;8.77;8.57;;;24.60;95.50;;;;;;3584999;40;20554;-57
2021/07/29 02:45:42;;;;;;;8.37;8.17;;;24.60;95.50;;;;;;3585961;40;20804;-57
2021/07/29 02:48:10;;;;;;;8.27;8.07;;;24.60;95.50;;;;;;3585187;40;20533;-57
2021/07/29 02:50:38;;;;;;;8.70;8.40;;;24.60;95.50;;;;;;3574591;40;20579;-57
2021/07/29 02:53:05;;;;;;;8.27;8.07;;;24.60;95.50;;;;;;3584027;40;20474;-59
2021/07/29 02:55:32;;;;;;;8.43;8.23;;;24.60;95.50;;;;;;3575904;40;20707;-57
2021/07/29 02:57:59;;;;;;;8.13;7.93;;;24.60;95.50;;;;;;3584018;40;20477;-58
2021/07/29 03:00:26;;;;;;;8.00;7.80;;;24.60;95.50;;;;;;3584601;40;20451;-58
2021/07/29 03:02:53;;;;;;;8.53;8.30;;;24.60;95.50;;;;;;3583062;40;20766;-57
2021/07/29 03:05:22;;;;;;;8.33;8.10;;;24.60;95.50;;;;;;3584605;40;20453;-58
2021/07/29 03:07:49;;;;;;;8.60;8.40;;;24.60;95.50;;;;;;3585021;40;20513;-58
2021/07/29 03:10:17;;;;;;;8.90;8.60;;;24.60;95.50;;;;;;3582715;40;20455;-57
2021/07/29 03:12:44;;;;;;;8.50;8.30;;;24.60;95.50;;;;;;3574761;40;20553;-57
2021/07/29 03:15:12;;;;;;;8.73;8.43;;;24.60;95.50;;;;;;3585024;40;20510;-58
2021/07/29 03:17:39;;;;;;;8.97;8.77;;;24.60;95.50;;;;;;3584857;40;20447;-58
2021/07/29 03:20:07;;;;;;;9.30;9.03;;;24.60;95.50;;;;;;3583761;40;20462;-59
2021/07/29 03:22:36;;;;;;;9.87;9.57;;;24.60;95.50;;;;;;3584405;40;20462;-57
2021/07/29 03:25:03;;;;;;;9.20;9.00;;;24.60;95.50;;;;;;3583663;40;20478;-58
2021/07/29 03:27:30;;;;;;;9.60;9.30;;;24.60;95.50;;;;;;3584051;40;20885;-57
2021/07/29 03:29:58;;;;;;;10.13;9.80;;;24.60;95.50;;;;;;3583702;40;20567;-55
2021/07/29 03:32:25;;;;;;;9.50;9.20;;;24.60;95.50;;;;;;3584168;40;20486;-59
2021/07/29 03:34:52;;;;;;;9.80;9.50;;;24.60;95.50;;;;;;3584207;40;20906;-57
2021/07/29 03:37:19;;;;;;;10.67;10.37;;;24.60;95.50;;;;;;3583568;40;20454;-59
2021/07/29 03:39:48;;;;;;;10.70;10.40;;;24.60;95.50;;;;;;3583242;40;20526;-58
2021/07/29 03:42:15;;;;;;;10.50;10.20;;;24.60;95.50;;;;;;3583538;40;20466;-58
2021/07/29 03:44:42;;;;;;;10.57;10.27;;;24.60;95.50;;;;;;3583906;40;20921;-58
2021/07/29 03:47:09;;;;;;;10.13;9.83;;;24.60;95.50;;;;;;3583472;40;20487;-58
2021/07/29 03:49:36;;;;;;;10.00;9.70;;;24.60;95.50;;;;;;3583333;40;20477;-57
2021/07/29 03:52:04;;;;;;;10.47;10.17;;;24.60;95.50;;;;;;3583653;40;20762;-57
2021/07/29 03:54:33;;;;;;;10.10;9.80;;;24.60;95.50;;;;;;3583985;40;20667;-57
2021/07/29 03:57:01;;;;;;;10.47;10.17;;;24.60;95.50;;;;;;3582979;40;20661;-57
2021/07/29 03:59:28;;;;;;;10.30;10.00;;;24.60;95.50;;;;;;3582483;40;20833;-56
2021/07/29 04:01:56;;;;;;;10.00;9.70;;;24.60;95.50;;;;;;3581800;40;20715;-57
2021/07/29 04:04:23;;;;;;;9.50;9.20;;;24.60;95.50;;;;;;3581927;40;20666;-58
2021/07/29 04:06:50;;;;;;;9.93;9.63;;;24.60;95.50;;;;;;3581484;40;20501;-58
2021/07/29 04:09:18;;;;;;;10.10;9.80;;;24.60;95.50;;;;;;3581494;40;20466;-56
2021/07/29 04:11:45;;;;;;;10.07;9.77;;;24.60;95.50;;;;;;3580317;40;21114;-57
2021/07/29 04:14:13;;;;;;;10.10;9.80;;;24.60;95.50;;;;;;3580690;40;20445;-59
2021/07/29 04:16:40;;;;;;;10.43;10.13;;;24.60;95.50;;;;;;3578934;40;20808;-58
2021/07/29 04:19:08;;;;;;;9.90;9.60;;;24.60;95.50;;;;;;3579767;40;20466;-58
2021/07/29 04:21:35;;;;;;;10.00;9.70;;;24.60;95.50;;;;;;3578696;40;20458;-58
2021/07/29 04:24:02;;;;;;;9.90;9.60;;;24.60;95.50;;;;;;3581647;40;20470;-57
2021/07/29 04:26:29;;;;;;;10.17;9.83;;;24.60;95.50;;;;;;3581674;40;20759;-58
2021/07/29 04:28:56;;;;;;;10.30;10.00;;;24.60;95.50;;;;;;3578690;40;20678;-56
2021/07/29 04:31:25;;;;;;;9.93;9.63;;;24.60;95.50;;;;;;3582115;40;20474;-56
2021/07/29 04:33:53;;;;;;;9.80;9.50;;;24.60;95.50;;;;;;3581192;40;20472;-57
2021/07/29 04:36:20;;;;;;;9.70;9.40;;;24.60;95.50;;;;;;3571807;40;20488;-57
2021/07/29 04:38:47;;;;;;;10.00;9.70;;;24.60;95.50;;;;;;3581114;40;20825;-56
2021/07/29 04:41:14;;;;;;;9.37;9.07;;;24.60;95.50;;;;;;3581104;40;20531;-58
2021/07/29 04:43:41;;;;;;;9.50;9.20;;;24.60;95.50;;;;;;3579190;40;20458;-57
2021/07/29 04:46:09;;;;;;;9.57;9.27;;;24.60;95.50;;;;;;3580124;40;20740;-57
2021/07/29 04:48:37;;;;;;;9.70;9.40;;;24.60;95.50;;;;;;3579592;40;20678;-57
2021/07/29 04:51:05;;;;;;;9.70;9.40;;;24.60;95.50;;;;;;3577768;40;20707;-57
2021/07/29 04:53:33;;;;;;;9.40;9.10;;;24.60;95.50;;;;;;3578652;40;20465;-58
2021/07/29 04:56:03;;;;;;;9.97;9.67;;;24.60;95.50;;;;;;3580252;40;20450;-58
2021/07/29 04:58:30;;;;;;;9.67;9.37;;;24.60;95.50;;;;;;3578477;40;20780;-57
2021/07/29 05:00:57;;;;;;;9.47;9.20;;;24.60;95.40;;;;;;3578863;40;20470;-58
2021/07/29 05:03:25;;;;;;;9.57;9.27;;;24.60;95.50;;;;;;3579142;40;20474;-59
2021/07/29 05:05:54;;;;;;;9.70;9.40;;;24.60;95.50;;;;;;3579548;40;20451;-59
2021/07/29 05:08:21;;;;;;;10.00;9.70;;;24.60;95.50;;;;;;3579145;40;20454;-58
2021/07/29 05:10:48;;;;;;;9.47;9.17;;;24.60;95.50;;;;;;3578752;40;21077;-58
2021/07/29 05:13:15;;;;;;;9.70;9.40;;;24.60;95.50;;;;;;3578012;40;20493;-58
2021/07/29 05:15:42;;;;;;;9.67;9.37;;;24.60;95.50;;;;;;3569707;40;20995;-54
2021/07/29 05:18:09;;;;;;;9.77;9.47;;;24.60;95.50;;;;;;3577596;40;20469;-58
2021/07/29 05:20:37;;;;;;;9.83;9.53;;;24.60;95.50;;;;;;3577019;40;20490;-57
2021/07/29 05:23:05;;;;;;;10.10;9.80;;;24.60;95.50;;;;;;3576424;40;20446;-57
2021/07/29 05:25:36;;;;;;;10.03;9.73;;;24.60;95.50;;;;;;3575749;40;20579;-58
2021/07/29 05:28:03;;;;;;;9.90;9.60;;;24.60;95.50;;;;;;3574232;40;20446;-58
2021/07/29 05:30:31;;;;;;;10.17;9.87;;;24.60;95.50;;;;;;3565360;40;20486;-56
2021/07/29 05:32:58;;;;;;;9.60;9.30;;;24.60;95.50;;;;;;3574161;40;20727;-58
2021/07/29 05:35:26;;;;;;;10.37;10.07;;;24.60;95.50;;;;;;3574548;40;20732;-59
2021/07/29 05:37:53;;;;;;;10.17;9.87;;;24.60;95.50;;;;;;3574833;40;20453;-57
2021/07/29 05:40:21;;;;;;;9.97;9.67;;;24.60;95.40;;;;;;3572533;40;20470;-57
2021/07/29 05:42:49;;;;;;;10.00;9.70;;;24.60;95.50;;;;;;3574577;40;20469;-57
2021/07/29 05:45:16;;;;;;;10.10;9.80;;;24.60;95.50;;;;;;3574133;40;20474;-58
2021/07/29 05:47:43;;;;;;;10.00;9.70;;;24.60;95.40;;;;;;3572289;40;20458;-57
2021/07/29 05:50:12;;;;;;;10.10;9.80;;;24.60;95.40;;;;;;3572260;40;20473;-59
2021/07/29 05:52:39;;;;;;;9.83;9.53;;;24.60;95.50;;;;;;3573880;40;20911;-58
2021/07/29 05:55:07;;;;;;;9.90;9.60;;;24.60;95.40;;;;;;3573520;40;20673;-58
2021/07/29 05:57:36;;;;;;;9.90;9.60;;;24.60;95.40;;;;;;3570636;40;20959;-57
2021/07/29 06:00:05;;;;;;;9.60;9.30;;;24.60;95.40;;;;;;3569705;40;20466;-58
2021/07/29 06:02:36;;;;;;;10.03;9.73;;;24.60;95.40;;;;;;3568195;40;20658;-59
2021/07/29 06:05:03;;;;;;;9.80;9.50;;;24.60;95.40;;;;;;3569420;40;20860;-57
2021/07/29 06:07:31;;;;;;;9.93;9.63;;;24.60;95.40;;;;;;3567021;40;20494;-55
2021/07/29 06:09:58;;;;;;;10.03;9.73;;;24.60;95.40;;;;;;3564559;40;21035;-57
2021/07/29 06:12:27;;;;;;;10.10;9.80;;;24.60;95.50;;;;;;3564004;40;20822;-58
2021/07/29 06:14:56;;;;;;;10.47;10.17;;;24.60;95.40;;;;;;3566544;40;20752;-55
2021/07/29 06:17:26;;;;;;;10.63;10.33;;;24.60;95.40;;;;;;3567596;40;20462;-55
2021/07/29 06:19:53;;;;;;;10.30;10.00;;;24.60;95.40;;;;;;3567486;40;20770;-57
2021/07/29 06:22:20;;;;;;;10.00;9.70;;;24.60;95.40;;;;;;3566350;40;20721;-57
2021/07/29 06:24:47;;;;;;;9.40;9.10;;;24.60;95.40;;;;;;3564604;40;20771;-57
2021/07/29 06:27:14;;;;;;;9.17;8.87;;;24.60;95.40;;;;;;3565511;40;20470;-57
2021/07/29 06:29:42;;;;;;;10.87;10.57;;;24.60;95.40;;;;;;3565883;40;20731;-57
2021/07/29 06:32:10;;;;;;;10.80;10.50;;;24.60;95.40;;;;;;3565092;40;20466;-55
2021/07/29 06:34:38;;;;;;;10.30;10.00;;;24.60;95.40;;;;;;3568437;40;20637;-58
2021/07/29 06:37:05;;;;;;;10.00;9.70;;;24.60;95.40;;;;;;3569045;40;21255;-57
2021/07/29 06:39:33;;;;;;;10.20;9.90;;;24.60;95.40;;;;;;3572537;40;20648;-61
2021/07/29 06:42:00;;;;;;;10.23;9.93;;;24.60;95.40;;;;;;3573311;40;20459;-61
2021/07/29 06:44:28;;;;;;;9.90;9.60;;;24.60;95.40;;;;;;3565103;40;20490;-61
2021/07/29 06:46:55;;;;;;;10.30;10.00;;;24.60;95.40;;;;;;3574567;40;20483;-61
2021/07/29 06:49:28;;;;;;;10.20;9.90;;;24.60;95.40;;;;;;3574966;40;20937;-61
2021/07/29 06:51:55;;;;;;;10.17;9.87;;;24.60;95.40;;;;;;3574832;40;20496;-61
2021/07/29 06:54:22;;;;;;;10.23;9.93;;;24.60;95.40;;;;;;3573968;40;20779;-61
2021/07/29 06:56:49;;;;;;;10.40;10.10;;;24.60;95.40;;;;;;3574715;40;20446;-61
2021/07/29 06:59:16;;;;;;;9.90;9.60;;;24.60;95.40;;;;;;3575537;40;20542;-61
2021/07/29 07:01:43;;;;;;;10.03;9.73;;;24.60;95.40;;;;;;3575320;40;20665;-61
2021/07/29 07:04:12;;;;;;;9.57;9.27;;;24.60;95.40;;;;;;3573474;40;21047;-61
2021/07/29 07:06:40;;;;;;;9.50;9.20;;;24.60;95.40;;;;;;3573558;40;20804;-61
2021/07/29 07:09:07;;;;;;;9.30;9.10;;;24.60;95.40;;;;;;3577536;40;20453;-61
2021/07/29 07:11:35;;;;;;;9.37;9.07;;;24.60;95.40;;;;;;3585154;40;20481;-61
2021/07/29 07:14:02;;;;;;;9.30;9.00;;;24.60;95.40;;;;;;3580543;40;20995;-61
2021/07/29 07:16:30;;;;;;;9.27;8.97;;;24.60;95.40;;;;;;3576934;40;20638;-61
2021/07/29 07:18:57;;;;;;;10.30;10.00;;;24.60;95.40;;;;;;3490679;40;21452;-61
2021/07/29 07:21:25;;;;;;;10.00;9.70;;;24.60;95.40;;;;;;3563143;40;20481;-61
2021/07/29 07:23:53;;;;;;;9.97;9.67;;;24.60;95.40;;;;;;3569904;40;20474;-61
2021/07/29 07:26:22;;;;;;;9.50;9.20;;;24.60;95.40;;;;;;3560787;40;20482;-61
2021/07/29 07:28:51;;;;;;;9.23;8.93;;;24.60;95.40;;;;;;3560988;40;20486;-57
2021/07/29 07:31:19;;;;;;;9.70;9.40;;;24.60;95.40;;;;;;3561044;40;20466;-55
2021/07/29 07:33:47;;;;;;;9.67;9.37;;;24.60;95.40;;;;;;3559554;40;20459;-56
2021/07/29 07:36:16;;;;;;;9.40;9.10;;;24.60;95.40;;;;;;3559298;40;21059;-57
2021/07/29 07:38:44;;;;;;;9.97;9.67;;;24.60;95.40;;;;;;3561899;40;20885;-56
2021/07/29 07:41:16;;;;;;;9.60;9.30;;;24.60;95.30;;;;;;3560613;40;20702;-57
2021/07/29 07:43:44;;;;;;;9.30;9.03;;;24.60;95.30;;;;;;3555979;40;20857;-57
2021/07/29 07:46:12;;;;;;;9.47;9.17;;;24.60;95.30;;;;;;3555168;40;20459;-55
2021/07/29 07:48:39;;;;;;;9.00;8.80;;;24.60;95.30;;;;;;3557094;40;20933;-53
2021/07/29 07:51:06;;;;;;;9.23;9.00;;;24.60;95.30;;;;;;3559857;40;20461;-54
2021/07/29 07:53:33;;;;;;;9.10;8.80;;;24.60;95.30;;;;;;3556655;40;20482;-55
2021/07/29 07:56:04;;;;;;;9.10;8.80;;;24.60;95.30;;;;;;3557547;40;20459;-53
2021/07/29 07:58:32;;;;;;;8.47;8.27;;;24.60;95.40;;;;;;3548849;40;20862;-54
2021/07/29 08:01:02;;;;;;;8.60;8.40;;;24.60;95.30;;;;;;3556144;40;20874;-53
2021/07/29 08:03:29;;;;;;;8.60;8.40;;;24.60;95.30;;;;;;3548702;40;20674;-55
2021/07/29 08:06:00;;;;;;;8.70;8.50;;;24.60;95.30;;;;;;3557133;40;20549;-57
2021/07/29 08:08:28;;;;;;;8.70;8.50;;;24.60;95.30;;;;;;3553929;40;20487;-54
2021/07/29 08:10:55;;;;;;;9.00;8.80;;;24.60;95.40;;;;;;3558563;40;20805;-56
2021/07/29 08:13:22;;;;;;;9.43;9.13;;;24.60;95.30;;;;;;3556736;40;20688;-55
2021/07/29 08:15:50;;;;;;;9.47;9.17;;;24.60;95.30;;;;;;3558656;40;20716;-57
2021/07/29 08:18:17;;;;;;;9.27;8.97;;;24.60;95.40;;;;;;3559448;40;20834;-54
2021/07/29 08:20:45;;;;;;;9.30;9.00;;;24.60;95.40;;;;;;3556909;40;20513;-57
2021/07/29 08:23:12;;;;;;;9.50;9.20;;;24.60;95.40;;;;;;3557874;40;20497;-56
2021/07/29 08:25:40;;;;;;;9.47;9.27;;;24.60;95.40;;;;;;3562134;40;20660;-53
2021/07/29 08:28:07;;;;;;;10.13;9.83;;;24.60;95.40;;;;;;3569354;40;20729;-53
2021/07/29 08:30:34;;;;;;;9.77;9.47;;;24.60;95.40;;;;;;3569504;40;20627;-54
2021/07/29 08:33:09;;;;;;;9.10;8.90;;;24.60;95.40;;;;;;3565570;40;20489;-56
2021/07/29 08:35:37;;;;;;;9.10;8.80;;;24.70;95.50;;;;;;3567636;40;20460;-57
2021/07/29 08:38:05;;;;;;;9.90;9.60;;;24.60;95.40;;;;;;3566869;40;20818;-53
2021/07/29 08:40:32;;;;;;;8.90;8.60;;;24.70;95.40;;;;;;3555991;40;20472;-56
2021/07/29 08:42:59;;;;;;;9.47;9.17;;;24.60;95.40;;;;;;3568313;40;20730;-54
2021/07/29 08:45:30;;;;;;;9.20;9.00;;;24.60;95.40;;;;;;3565808;40;20676;-56
2021/07/29 08:47:58;;;;;;;9.37;9.07;;;24.60;95.40;;;;;;3566217;40;20464;-54
2021/07/29 08:50:26;;;;;;;9.00;8.77;;;24.60;95.40;;;;;;3565788;40;20713;-55
2021/07/29 08:52:54;;;;;;;9.23;8.93;;;24.60;95.40;;;;;;3568709;40;20470;-53
2021/07/29 08:55:21;;;;;;;9.60;9.30;;;24.60;95.40;;;;;;3567317;40;20749;-57
2021/07/29 08:57:48;;;;;;;9.20;8.90;;;24.60;95.40;;;;;;3567592;40;20523;-54
2021/07/29 09:00:16;;;;;;;9.83;9.53;;;24.60;95.40;;;;;;3556457;40;20768;-56
2021/07/29 09:02:43;;;;;;;9.30;9.03;;;24.60;95.40;;;;;;3571108;40;20482;-61
2021/07/29 09:05:15;;;;;;;9.07;8.87;;;24.60;95.40;;;;;;3574206;40;20852;-61
2021/07/29 09:07:44;;;;;;;9.50;9.20;;;24.60;95.40;;;;;;3572016;40;20502;-61
2021/07/29 09:10:21;;;;;;;9.80;9.50;;;24.70;95.50;;;;;;3572099;40;20785;-62
2021/07/29 09:13:07;;;;;;;10.07;9.77;;;24.60;95.40;;;;;;3572863;40;20453;-61
2021/07/29 09:15:34;;;;;;;10.20;9.90;;;24.60;95.40;;;;;;3563200;40;20495;-60
2021/07/29 09:18:02;;;;;;;9.50;9.20;;;24.60;95.40;;;;;;3573567;40;20529;-61
2021/07/29 09:20:29;;;;;;;9.60;9.30;;;24.60;95.40;;;;;;3574678;40;20458;-61
2021/07/29 09:23:12;;;;;;;9.10;8.80;;;24.60;95.40;;;;;;3573069;40;20563;-61
2021/07/29 09:25:39;;;;;;;9.40;9.10;;;24.60;95.40;;;;;;3571281;40;20779;-60
2021/07/29 09:28:07;;;;;;;9.37;9.13;;;24.60;95.40;;;;;;3564410;40;20973;-61
2021/07/29 09:30:35;;;;;;;9.03;8.73;;;24.70;95.50;;;;;;3568523;40;20455;-61
2021/07/29 09:33:05;;;;;;;9.43;9.13;;;24.60;95.40;;;;;;3563420;40;20458;-61
2021/07/29 09:35:34;;;;;;;9.30;9.00;;;24.60;95.40;;;;;;3563538;40;20471;-61
2021/07/29 09:38:05;;;;;;;9.20;8.90;;;24.60;95.40;;;;;;3560527;40;20573;-61
2021/07/29 09:40:43;;;;;;;9.27;8.97;;;24.60;95.40;;;;;;3513889;40;20724;-61
2021/07/29 09:43:13;;;;;;;9.10;8.80;;;24.60;95.50;;;;;;3550607;40;20876;-61
2021/07/29 09:45:41;;;;;;;8.93;8.70;;;24.60;95.40;;;;;;3554018;40;20788;-61
2021/07/29 09:48:10;;;;;;;8.70;8.50;;;24.60;95.40;;;;;;3563547;40;20531;-61
2021/07/29 09:50:39;;;;;;;9.23;8.93;;;24.60;95.40;;;;;;3562466;40;20730;-61
2021/07/29 09:53:08;;;;;;;9.50;9.20;;;24.60;95.40;;;;;;3562435;40;20495;-61
2021/07/29 09:55:36;;;;;;;9.20;8.90;;;24.60;95.40;;;;;;3562011;40;20506;-61
2021/07/29 09:58:04;;;;;;;9.73;9.43;;;24.60;95.40;;;;;;3561252;40;20911;-61
2021/07/29 10:00:34;;;;;;;10.10;9.80;;;24.60;95.50;;;;;;3555090;40;20570;-58
2021/07/29 10:03:03;;;;;;;9.80;9.50;;;24.60;95.50;;;;;;3553259;40;20510;-58
2021/07/29 10:05:37;;;;;;;10.07;9.77;;;24.60;95.40;;;;;;3553884;40;20471;-59
2021/07/29 10:08:11;;;;;;;9.80;9.50;;;24.60;95.40;;;;;;3544909;40;20612;-59
2021/07/29 10:10:38;;;;;;;10.30;10.00;;;24.60;95.50;;;;;;3553675;40;20677;-59
2021/07/29 10:13:06;;;;;;;9.30;9.00;;;24.70;95.50;;;;;;3555381;40;20500;-60
2021/07/29 10:15:41;;;;;;;9.23;8.97;;;24.60;95.40;;;;;;3556767;40;20677;-58
2021/07/29 10:18:09;;;;;;;9.70;9.40;;;24.70;95.50;;;;;;3553688;40;20463;-59
2021/07/29 10:20:38;;;;;;;9.60;9.30;;;24.60;95.50;;;;;;3556976;40;20475;-59
2021/07/29 10:23:53;;;;;;;9.30;9.00;;;24.60;95.50;;;;;;3550692;40;20514;-58
2021/07/29 10:26:21;;;;;;;9.60;9.30;;;24.60;95.50;;;;;;3554932;40;20509;-58
2021/07/29 10:28:48;;;;;;;9.93;9.63;;;24.60;95.40;;;;;;3552820;40;20569;-58
2021/07/29 10:31:18;;;;;;;9.13;8.83;;;24.60;95.40;;;;;;3553054;40;20467;-58
2021/07/29 10:33:48;;;;;;;8.97;8.77;;;24.60;95.40;;;;;;3542230;40;20658;-59
2021/07/29 10:36:48;;;;;;;8.70;8.50;;;24.60;95.50;;;;;;3551282;40;20772;-57
2021/07/29 10:39:17;;;;;;;9.67;9.37;;;24.60;95.50;;;;;;3555485;40;20914;-61
2021/07/29 10:41:49;;;;;;;9.47;9.17;;;24.60;95.50;;;;;;3551041;40;20822;-61
2021/07/29 10:44:56;;;;;;;9.20;8.90;;;24.60;95.50;;;;;;3559933;40;20552;-61
2021/07/29 10:47:37;;;;;;;9.33;9.03;;;24.60;95.50;;;;;;3561668;40;20481;-61
2021/07/29 10:50:19;;;;;;;9.20;8.90;;;24.60;95.50;;;;;;3562185;40;20503;-61
2021/07/29 10:52:55;;;;;;;9.10;8.80;;;24.60;95.50;;;;;;3561853;40;20508;-61
2021/07/29 10:55:24;;;;;;;8.83;8.63;;;24.60;95.80;;;;;;3563875;40;20787;-61
2021/07/29 10:57:59;;;;;;;9.23;8.93;;;24.60;95.50;;;;;;3550783;40;20494;-59
2021/07/29 11:00:27;;;;;;;9.77;9.47;;;24.60;95.50;;;;;;3560956;40;20457;-61
2021/07/29 11:02:55;;;;;;;9.53;9.23;;;24.60;95.50;;;;;;3560867;40;20759;-61
2021/07/29 11:05:30;;;;;;;9.30;9.00;;;24.60;95.50;;;;;;3561709;40;20500;-60
2021/07/29 11:07:57;;;;;;;9.83;9.53;;;24.60;95.50;;;;;;3559086;40;20699;-61
2021/07/29 11:10:29;;;;;;;9.77;9.47;;;24.60;95.50;;;;;;3562468;40;20470;-61
2021/07/29 11:12:57;;;;;;;9.00;8.70;;;24.60;95.50;;;;;;3552597;40;20447;-61
2021/07/29 11:15:27;;;;;;;9.40;9.10;;;24.60;95.50;;;;;;3561279;40;20455;-61
2021/07/29 11:17:54;;;;;;;8.80;8.50;;;24.60;95.50;;;;;;3560405;40;20510;-60
2021/07/29 11:20:28;;;;;;;9.10;8.80;;;24.60;95.50;;;;;;3559777;40;20714;-61
2021/07/29 11:22:55;;;;;;;9.90;9.60;;;24.60;95.50;;;;;;3559968;40;20748;-61
2021/07/29 11:25:23;;;;;;;8.40;8.20;;;24.70;95.50;;;;;;3563392;40;20735;-61
2021/07/29 11:27:51;;;;;;;8.67;8.47;;;24.60;95.50;;;;;;3563205;40;20626;-61
2021/07/29 11:30:19;;;;;;;8.60;8.40;;;24.60;95.50;;;;;;3572559;40;20549;-61
2021/07/29 11:32:46;;;;;;;8.50;8.30;;;24.60;95.50;;;;;;3570627;40;20469;-61
2021/07/29 11:35:20;;;;;;;9.80;9.50;;;24.60;95.50;;;;;;3570073;40;20506;-62
2021/07/29 11:37:48;;;;;;;9.60;9.30;;;24.70;95.50;;;;;;3571271;40;20745;-61
2021/07/29 11:40:19;;;;;;;9.23;8.93;;;24.70;95.50;;;;;;3571686;40;20547;-61
2021/07/29 11:42:48;;;;;;;9.93;9.63;;;24.70;95.50;;;;;;3559840;40;20454;-60
2021/07/29 11:45:24;;;;;;;9.40;9.10;;;24.70;95.50;;;;;;3571625;40;20792;-61
2021/07/29 11:47:52;;;;;;;9.80;9.50;;;24.70;95.50;;;;;;3572094;40;20666;-61
2021/07/29 11:50:36;;;;;;;9.50;9.20;;;24.70;95.50;;;;;;3571035;40;20735;-61
2021/07/29 11:53:03;;;;;;;9.60;9.30;;;24.70;95.60;;;;;;3562405;40;20481;-61
2021/07/29 11:55:31;;;;;;;9.60;9.30;;;24.70;95.50;;;;;;3562832;40;20555;-61
2021/07/29 11:58:05;;;;;;;10.10;9.80;;;24.70;95.50;;;;;;3572906;40;20477;-61
2021/07/29 12:00:35;;;;;;;9.77;9.47;;;24.70;95.60;;;;;;3569413;40;20751;-61
2021/07/29 12:03:02;;;;;;;9.90;9.60;;;24.70;95.50;;;;;;3571286;40;20480;-61
2021/07/29 12:05:30;;;;;;;9.50;9.20;;;24.70;95.50;;;;;;3560782;40;20461;-61
2021/07/29 12:07:57;;;;;;;10.27;9.97;;;24.70;95.50;;;;;;3570526;40;20477;-61
2021/07/29 12:10:28;;;;;;;9.60;9.30;;;24.70;95.50;;;;;;3572189;40;20497;-61
2021/07/29 12:12:56;;;;;;;9.77;9.47;;;24.70;95.60;;;;;;3574039;40;20679;-61
2021/07/29 12:15:24;;;;;;;9.37;9.07;;;24.70;95.60;;;;;;3561433;40;20765;-61
2021/07/29 12:17:52;;;;;;;8.90;8.60;;;24.70;95.60;;;;;;3569764;40;20463;-61
2021/07/29 12:20:20;;;;;;;9.00;8.80;;;24.70;95.60;;;;;;3563783;40;20462;-61
2021/07/29 12:22:48;;;;;;;9.37;9.07;;;24.70;95.50;;;;;;3572499;40;20470;-61
2021/07/29 12:25:27;;;;;;;9.17;8.87;;;24.70;95.60;;;;;;3572285;40;20530;-62
2021/07/29 12:27:56;;;;;;;9.20;8.90;;;24.70;95.60;;;;;;3564194;40;20604;-61
2021/07/29 12:30:35;;;;;;;9.20;8.90;;;24.70;95.60;;;;;;3571704;40;20462;-61
2021/07/29 12:33:14;;;;;;;8.60;8.40;;;24.70;95.60;;;;;;3569942;40;20557;-62
2021/07/29 12:35:56;;;;;;;8.77;8.47;;;24.70;95.60;;;;;;3572410;40;20895;-61
2021/07/29 12:38:29;;;;;;;8.80;8.60;;;24.70;95.60;;;;;;3572335;40;20640;-61
2021/07/29 12:40:56;;;;;;;8.73;8.43;;;24.70;95.60;;;;;;3572483;40;21001;-61
2021/07/29 12:43:25;;;;;;;8.43;8.23;;;24.70;95.60;;;;;;3571406;40;20552;-61
2021/07/29 12:45:55;;;;;;;8.80;8.60;;;24.70;95.60;;;;;;3574458;40;20470;-61
2021/07/29 12:48:24;;;;;;;8.13;7.93;;;24.70;95.60;;;;;;3571244;40;20465;-61
2021/07/29 12:50:52;;;;;;;8.50;8.30;;;24.70;95.60;;;;;;3572488;40;20504;-61
2021/07/29 12:53:20;;;;;;;8.93;8.67;;;24.70;95.60;;;;;;3563824;40;20485;-61